メインページ
METAR-TAF:

METAR-TAF

空港 :

オークランド国際空港

オークランド, ニュージーランド

緯度: 37-01S, 経度: 174-48E, 海抜: 7m

現時点の気象観測

当レポートは11分前の17:00(UTC)に作成
の風 2kt
気温 8°C
湿度 87%
気圧 1019 hPa
視程10km以上

METAR: NZAA 221700Z AUTO 10002KT 9999 BKN060/// 08/06 Q1019 NOSIG

時間: 05:11 (17:11 UTC)

予報

当レポートは6時間2分前の11:09(UTC)に作成
予報は22日の 12時(UTC)から 23日の 12時(UTC)まで有効
変向風 2kt
視程10km以上
高度5000ftの雲は散在している
22日の 1900時(UTC)から
西の風 10kt
視程10km以上
高度3000ftの千切れ雲あり
弱いにわか雨

TAF: NZAA 221109Z 2212/2312 VRB02KT 9999 SCT050 FM221900 26010KT 9999 -SHRA BKN030

4,000以上の空港の気象観測と天気予報(METAR報とTAF報)

利用可能な観測所は地図上に黄色い丸と赤い丸で示す。

丸の上にカーソルを重ねると観測所名を参照できる。

次にクリックすると気象観測と天気予報を参照できる。

マップの切り替え:黒色「×」印の緑ボタンをクリックして拡大、「-」印の緑ボタンをクリックして縮小、緑色の三角印をクリックして隣りの地図に切り替え


METAR-TAF: